sensor_id;sensor_type;location;lat;lon;timestamp;P1;durP1;ratioP1;P2;durP2;ratioP2
21999;SDS011;11164;48.818;2.322;2022-09-09T00:00:13;12.02;;;1.63;;
21999;SDS011;11164;48.818;2.322;2022-09-09T00:02:41;11.18;;;1.35;;
21999;SDS011;11164;48.818;2.322;2022-09-09T00:05:22;9.68;;;2.10;;
21999;SDS011;11164;48.818;2.322;2022-09-09T00:07:54;10.90;;;1.75;;
21999;SDS011;11164;48.818;2.322;2022-09-09T00:10:29;9.77;;;1.70;;
21999;SDS011;11164;48.818;2.322;2022-09-09T00:13:00;8.77;;;1.63;;
21999;SDS011;11164;48.818;2.322;2022-09-09T00:20:44;8.60;;;1.60;;
21999;SDS011;11164;48.818;2.322;2022-09-09T00:23:24;8.45;;;1.85;;
21999;SDS011;11164;48.818;2.322;2022-09-09T00:28:25;9.57;;;1.50;;
21999;SDS011;11164;48.818;2.322;2022-09-09T00:30:55;8.77;;;1.33;;
21999;SDS011;11164;48.818;2.322;2022-09-09T00:33:26;8.57;;;1.55;;
21999;SDS011;11164;48.818;2.322;2022-09-09T00:35:53;11.38;;;1.70;;
21999;SDS011;11164;48.818;2.322;2022-09-09T00:40:54;9.18;;;1.70;;
21999;SDS011;11164;48.818;2.322;2022-09-09T00:43:29;10.50;;;1.90;;
21999;SDS011;11164;48.818;2.322;2022-09-09T00:52:08;11.30;;;1.73;;
21999;SDS011;11164;48.818;2.322;2022-09-09T00:57:31;8.80;;;1.65;;
21999;SDS011;11164;48.818;2.322;2022-09-09T01:03:06;10.57;;;1.70;;
21999;SDS011;11164;48.818;2.322;2022-09-09T01:08:35;11.65;;;1.77;;
21999;SDS011;11164;48.818;2.322;2022-09-09T01:11:03;8.52;;;2.35;;
21999;SDS011;11164;48.818;2.322;2022-09-09T01:13:31;9.18;;;1.90;;
21999;SDS011;11164;48.818;2.322;2022-09-09T01:15:59;9.63;;;1.67;;
21999;SDS011;11164;48.818;2.322;2022-09-09T01:18:31;8.50;;;1.63;;
21999;SDS011;11164;48.818;2.322;2022-09-09T01:23:56;10.48;;;1.73;;
21999;SDS011;11164;48.818;2.322;2022-09-09T01:26:28;10.57;;;2.08;;
21999;SDS011;11164;48.818;2.322;2022-09-09T01:29:16;8.75;;;1.45;;
21999;SDS011;11164;48.818;2.322;2022-09-09T01:31:54;10.82;;;1.98;;
21999;SDS011;11164;48.818;2.322;2022-09-09T01:34:21;8.25;;;1.60;;
21999;SDS011;11164;48.818;2.322;2022-09-09T01:39:19;12.00;;;2.03;;
21999;SDS011;11164;48.818;2.322;2022-09-09T01:41:45;8.80;;;1.77;;
21999;SDS011;11164;48.818;2.322;2022-09-09T01:44:11;8.57;;;1.58;;
21999;SDS011;11164;48.818;2.322;2022-09-09T01:46:37;7.60;;;1.58;;
21999;SDS011;11164;48.818;2.322;2022-09-09T01:49:03;10.40;;;2.30;;
21999;SDS011;11164;48.818;2.322;2022-09-09T01:51:32;10.07;;;1.70;;
21999;SDS011;11164;48.818;2.322;2022-09-09T01:53:58;11.48;;;2.10;;
21999;SDS011;11164;48.818;2.322;2022-09-09T02:02:10;15.40;;;2.42;;
21999;SDS011;11164;48.818;2.322;2022-09-09T02:04:40;10.18;;;1.55;;
21999;SDS011;11164;48.818;2.322;2022-09-09T02:07:31;9.50;;;2.08;;
21999;SDS011;11164;48.818;2.322;2022-09-09T02:10:11;8.35;;;1.80;;
21999;SDS011;11164;48.818;2.322;2022-09-09T02:12:53;12.85;;;1.90;;
21999;SDS011;11164;48.818;2.322;2022-09-09T02:15:41;10.75;;;1.88;;
21999;SDS011;11164;48.818;2.322;2022-09-09T02:18:11;7.53;;;1.55;;
21999;SDS011;11164;48.818;2.322;2022-09-09T02:20:40;11.00;;;1.75;;
21999;SDS011;11164;48.818;2.322;2022-09-09T02:23:08;9.82;;;1.95;;
21999;SDS011;11164;48.818;2.322;2022-09-09T02:25:36;10.52;;;1.75;;
21999;SDS011;11164;48.818;2.322;2022-09-09T02:28:03;7.15;;;1.38;;
21999;SDS011;11164;48.818;2.322;2022-09-09T02:30:32;7.25;;;1.95;;
21999;SDS011;11164;48.818;2.322;2022-09-09T02:33:00;11.38;;;2.00;;
21999;SDS011;11164;48.818;2.322;2022-09-09T02:35:29;7.93;;;1.90;;
21999;SDS011;11164;48.818;2.322;2022-09-09T02:37:58;8.27;;;2.00;;
21999;SDS011;11164;48.818;2.322;2022-09-09T02:40:26;12.00;;;1.98;;
21999;SDS011;11164;48.818;2.322;2022-09-09T02:42:52;14.02;;;2.30;;
21999;SDS011;11164;48.818;2.322;2022-09-09T02:45:23;10.75;;;2.03;;
21999;SDS011;11164;48.818;2.322;2022-09-09T02:47:57;10.67;;;1.77;;
21999;SDS011;11164;48.818;2.322;2022-09-09T02:50:33;10.75;;;2.10;;
21999;SDS011;11164;48.818;2.322;2022-09-09T02:53:16;9.75;;;2.40;;
21999;SDS011;11164;48.818;2.322;2022-09-09T02:55:54;9.07;;;2.00;;
21999;SDS011;11164;48.818;2.322;2022-09-09T02:58:24;9.07;;;2.08;;
21999;SDS011;11164;48.818;2.322;2022-09-09T03:00:50;10.52;;;1.85;;
21999;SDS011;11164;48.818;2.322;2022-09-09T03:03:16;10.60;;;1.77;;
21999;SDS011;11164;48.818;2.322;2022-09-09T03:05:43;10.82;;;2.10;;
21999;SDS011;11164;48.818;2.322;2022-09-09T03:08:10;9.35;;;2.10;;
21999;SDS011;11164;48.818;2.322;2022-09-09T03:10:36;11.70;;;2.22;;
21999;SDS011;11164;48.818;2.322;2022-09-09T03:13:02;7.72;;;1.80;;
21999;SDS011;11164;48.818;2.322;2022-09-09T03:15:29;13.10;;;2.40;;
21999;SDS011;11164;48.818;2.322;2022-09-09T03:17:55;11.25;;;2.47;;
21999;SDS011;11164;48.818;2.322;2022-09-09T03:20:22;8.63;;;2.33;;
21999;SDS011;11164;48.818;2.322;2022-09-09T03:22:52;10.40;;;2.08;;
21999;SDS011;11164;48.818;2.322;2022-09-09T03:25:18;12.15;;;2.50;;
21999;SDS011;11164;48.818;2.322;2022-09-09T03:27:44;11.32;;;1.92;;
21999;SDS011;11164;48.818;2.322;2022-09-09T03:30:09;6.03;;;1.77;;
21999;SDS011;11164;48.818;2.322;2022-09-09T03:32:35;12.02;;;2.10;;
21999;SDS011;11164;48.818;2.322;2022-09-09T03:35:01;9.75;;;1.98;;
21999;SDS011;11164;48.818;2.322;2022-09-09T03:37:26;12.75;;;2.30;;
21999;SDS011;11164;48.818;2.322;2022-09-09T03:39:53;11.23;;;2.55;;
21999;SDS011;11164;48.818;2.322;2022-09-09T03:42:19;8.80;;;2.20;;
21999;SDS011;11164;48.818;2.322;2022-09-09T03:44:46;10.75;;;2.13;;
21999;SDS011;11164;48.818;2.322;2022-09-09T03:47:15;10.68;;;2.08;;
21999;SDS011;11164;48.818;2.322;2022-09-09T03:49:42;10.30;;;1.98;;
21999;SDS011;11164;48.818;2.322;2022-09-09T03:52:08;9.55;;;2.00;;
21999;SDS011;11164;48.818;2.322;2022-09-09T03:54:34;8.88;;;1.90;;
21999;SDS011;11164;48.818;2.322;2022-09-09T03:56:59;11.40;;;2.00;;
21999;SDS011;11164;48.818;2.322;2022-09-09T03:59:25;8.73;;;1.77;;
21999;SDS011;11164;48.818;2.322;2022-09-09T04:01:51;9.82;;;2.17;;
21999;SDS011;11164;48.818;2.322;2022-09-09T04:04:16;10.52;;;2.50;;
21999;SDS011;11164;48.818;2.322;2022-09-09T04:06:42;10.10;;;2.30;;
21999;SDS011;11164;48.818;2.322;2022-09-09T04:09:07;10.13;;;2.30;;
21999;SDS011;11164;48.818;2.322;2022-09-09T04:11:32;11.82;;;1.98;;
21999;SDS011;11164;48.818;2.322;2022-09-09T04:13:58;13.77;;;2.38;;
21999;SDS011;11164;48.818;2.322;2022-09-09T04:16:24;14.48;;;2.53;;
21999;SDS011;11164;48.818;2.322;2022-09-09T04:18:49;11.23;;;2.70;;
21999;SDS011;11164;48.818;2.322;2022-09-09T04:21:15;8.05;;;1.85;;
21999;SDS011;11164;48.818;2.322;2022-09-09T04:23:41;15.57;;;2.33;;
21999;SDS011;11164;48.818;2.322;2022-09-09T04:26:06;10.98;;;2.15;;
21999;SDS011;11164;48.818;2.322;2022-09-09T04:28:32;11.10;;;2.20;;
21999;SDS011;11164;48.818;2.322;2022-09-09T04:31:04;11.48;;;2.63;;
21999;SDS011;11164;48.818;2.322;2022-09-09T04:36:00;13.05;;;2.58;;
21999;SDS011;11164;48.818;2.322;2022-09-09T04:38:25;13.70;;;2.60;;
21999;SDS011;11164;48.818;2.322;2022-09-09T04:40:51;10.93;;;2.58;;
21999;SDS011;11164;48.818;2.322;2022-09-09T04:43:18;14.77;;;2.30;;
21999;SDS011;11164;48.818;2.322;2022-09-09T04:45:44;13.00;;;2.50;;
21999;SDS011;11164;48.818;2.322;2022-09-09T04:48:12;14.40;;;2.50;;
21999;SDS011;11164;48.818;2.322;2022-09-09T04:50:37;14.77;;;2.55;;
21999;SDS011;11164;48.818;2.322;2022-09-09T04:53:03;14.63;;;2.80;;
21999;SDS011;11164;48.818;2.322;2022-09-09T04:55:30;12.85;;;2.72;;
21999;SDS011;11164;48.818;2.322;2022-09-09T04:57:56;15.23;;;2.45;;
21999;SDS011;11164;48.818;2.322;2022-09-09T05:00:22;11.40;;;2.17;;
21999;SDS011;11164;48.818;2.322;2022-09-09T05:02:51;6.82;;;1.98;;
21999;SDS011;11164;48.818;2.322;2022-09-09T05:05:16;10.27;;;2.30;;
21999;SDS011;11164;48.818;2.322;2022-09-09T05:07:42;21.92;;;2.80;;
21999;SDS011;11164;48.818;2.322;2022-09-09T05:10:08;8.48;;;1.90;;
21999;SDS011;11164;48.818;2.322;2022-09-09T05:12:35;13.00;;;2.40;;
21999;SDS011;11164;48.818;2.322;2022-09-09T05:15:00;12.60;;;2.75;;
21999;SDS011;11164;48.818;2.322;2022-09-09T05:17:26;12.27;;;2.72;;
21999;SDS011;11164;48.818;2.322;2022-09-09T05:19:52;10.43;;;2.63;;
21999;SDS011;11164;48.818;2.322;2022-09-09T05:22:18;10.02;;;2.10;;
21999;SDS011;11164;48.818;2.322;2022-09-09T05:24:45;13.65;;;2.95;;
21999;SDS011;11164;48.818;2.322;2022-09-09T05:27:10;13.18;;;2.47;;
21999;SDS011;11164;48.818;2.322;2022-09-09T05:29:37;10.70;;;2.42;;
21999;SDS011;11164;48.818;2.322;2022-09-09T05:32:04;10.50;;;2.95;;
21999;SDS011;11164;48.818;2.322;2022-09-09T05:34:29;14.27;;;3.50;;
21999;SDS011;11164;48.818;2.322;2022-09-09T05:36:55;9.75;;;3.22;;
21999;SDS011;11164;48.818;2.322;2022-09-09T05:39:20;9.85;;;2.53;;
21999;SDS011;11164;48.818;2.322;2022-09-09T05:41:46;8.15;;;2.20;;
21999;SDS011;11164;48.818;2.322;2022-09-09T05:44:11;11.45;;;2.75;;
21999;SDS011;11164;48.818;2.322;2022-09-09T05:46:37;12.07;;;2.97;;
21999;SDS011;11164;48.818;2.322;2022-09-09T05:49:03;9.00;;;2.10;;
21999;SDS011;11164;48.818;2.322;2022-09-09T05:51:29;10.45;;;2.42;;
21999;SDS011;11164;48.818;2.322;2022-09-09T05:53:55;12.02;;;2.28;;
21999;SDS011;11164;48.818;2.322;2022-09-09T05:56:24;14.65;;;3.00;;
21999;SDS011;11164;48.818;2.322;2022-09-09T05:58:54;10.88;;;2.30;;
21999;SDS011;11164;48.818;2.322;2022-09-09T06:01:24;8.15;;;2.40;;
21999;SDS011;11164;48.818;2.322;2022-09-09T06:03:51;10.73;;;2.60;;
21999;SDS011;11164;48.818;2.322;2022-09-09T06:06:18;7.78;;;2.13;;
21999;SDS011;11164;48.818;2.322;2022-09-09T06:08:46;9.98;;;2.25;;
21999;SDS011;11164;48.818;2.322;2022-09-09T06:11:14;11.55;;;2.63;;
21999;SDS011;11164;48.818;2.322;2022-09-09T06:13:41;10.27;;;2.08;;
21999;SDS011;11164;48.818;2.322;2022-09-09T06:16:17;15.65;;;2.50;;
21999;SDS011;11164;48.818;2.322;2022-09-09T06:18:43;8.57;;;2.10;;
21999;SDS011;11164;48.818;2.322;2022-09-09T06:21:09;12.02;;;2.72;;
21999;SDS011;11164;48.818;2.322;2022-09-09T06:23:39;9.77;;;2.50;;
21999;SDS011;11164;48.818;2.322;2022-09-09T06:26:10;11.80;;;2.20;;
21999;SDS011;11164;48.818;2.322;2022-09-09T06:28:39;13.68;;;2.28;;
21999;SDS011;11164;48.818;2.322;2022-09-09T06:31:08;9.05;;;2.30;;
21999;SDS011;11164;48.818;2.322;2022-09-09T06:33:36;10.73;;;2.38;;
21999;SDS011;11164;48.818;2.322;2022-09-09T06:36:06;12.32;;;2.47;;
21999;SDS011;11164;48.818;2.322;2022-09-09T06:38:41;10.27;;;2.28;;
21999;SDS011;11164;48.818;2.322;2022-09-09T06:41:07;11.30;;;2.33;;
21999;SDS011;11164;48.818;2.322;2022-09-09T06:43:34;10.88;;;2.20;;
21999;SDS011;11164;48.818;2.322;2022-09-09T06:46:13;11.55;;;2.17;;
21999;SDS011;11164;48.818;2.322;2022-09-09T06:48:41;17.05;;;2.78;;
21999;SDS011;11164;48.818;2.322;2022-09-09T06:51:08;13.30;;;2.38;;
21999;SDS011;11164;48.818;2.322;2022-09-09T06:53:39;10.50;;;1.98;;
21999;SDS011;11164;48.818;2.322;2022-09-09T06:58:43;6.47;;;1.27;;
21999;SDS011;11164;48.818;2.322;2022-09-09T07:01:10;11.65;;;1.85;;
21999;SDS011;11164;48.818;2.322;2022-09-09T07:03:37;13.82;;;2.20;;
21999;SDS011;11164;48.818;2.322;2022-09-09T07:06:13;9.50;;;2.35;;
21999;SDS011;11164;48.818;2.322;2022-09-09T07:08:40;10.63;;;2.00;;
21999;SDS011;11164;48.818;2.322;2022-09-09T07:11:06;8.15;;;1.83;;
21999;SDS011;11164;48.818;2.322;2022-09-09T07:13:33;6.00;;;1.50;;
21999;SDS011;11164;48.818;2.322;2022-09-09T07:16:06;12.25;;;2.00;;
21999;SDS011;11164;48.818;2.322;2022-09-09T07:18:33;9.05;;;2.00;;
21999;SDS011;11164;48.818;2.322;2022-09-09T07:20:59;9.88;;;2.05;;
21999;SDS011;11164;48.818;2.322;2022-09-09T07:23:25;8.32;;;2.08;;
21999;SDS011;11164;48.818;2.322;2022-09-09T07:25:51;7.47;;;2.30;;
21999;SDS011;11164;48.818;2.322;2022-09-09T07:28:18;7.25;;;1.85;;
21999;SDS011;11164;48.818;2.322;2022-09-09T07:30:52;9.05;;;1.80;;
21999;SDS011;11164;48.818;2.322;2022-09-09T07:35:45;6.65;;;1.75;;
21999;SDS011;11164;48.818;2.322;2022-09-09T07:38:10;8.07;;;1.50;;
21999;SDS011;11164;48.818;2.322;2022-09-09T07:40:37;8.20;;;1.70;;
21999;SDS011;11164;48.818;2.322;2022-09-09T07:43:03;8.70;;;1.90;;
21999;SDS011;11164;48.818;2.322;2022-09-09T07:45:29;8.68;;;2.40;;
21999;SDS011;11164;48.818;2.322;2022-09-09T07:47:57;7.93;;;1.75;;
21999;SDS011;11164;48.818;2.322;2022-09-09T07:50:23;9.63;;;1.63;;
21999;SDS011;11164;48.818;2.322;2022-09-09T07:52:49;8.38;;;2.00;;
21999;SDS011;11164;48.818;2.322;2022-09-09T07:55:15;7.45;;;1.83;;
21999;SDS011;11164;48.818;2.322;2022-09-09T07:57:41;5.65;;;1.60;;
21999;SDS011;11164;48.818;2.322;2022-09-09T08:00:06;7.20;;;1.65;;
21999;SDS011;11164;48.818;2.322;2022-09-09T08:02:32;10.63;;;1.92;;
21999;SDS011;11164;48.818;2.322;2022-09-09T08:04:57;10.82;;;1.70;;
21999;SDS011;11164;48.818;2.322;2022-09-09T08:07:23;10.05;;;2.17;;
21999;SDS011;11164;48.818;2.322;2022-09-09T08:09:49;6.70;;;1.38;;
21999;SDS011;11164;48.818;2.322;2022-09-09T08:12:14;7.15;;;2.00;;
21999;SDS011;11164;48.818;2.322;2022-09-09T08:14:40;11.48;;;2.35;;
21999;SDS011;11164;48.818;2.322;2022-09-09T08:17:05;9.73;;;2.10;;
21999;SDS011;11164;48.818;2.322;2022-09-09T08:19:31;9.18;;;2.20;;
21999;SDS011;11164;48.818;2.322;2022-09-09T08:22:00;6.60;;;1.45;;
21999;SDS011;11164;48.818;2.322;2022-09-09T08:24:26;11.32;;;2.20;;
21999;SDS011;11164;48.818;2.322;2022-09-09T08:26:53;8.77;;;2.00;;
21999;SDS011;11164;48.818;2.322;2022-09-09T08:29:19;7.32;;;1.90;;
21999;SDS011;11164;48.818;2.322;2022-09-09T08:34:30;7.97;;;1.70;;
21999;SDS011;11164;48.818;2.322;2022-09-09T08:36:56;7.88;;;2.00;;
21999;SDS011;11164;48.818;2.322;2022-09-09T08:39:21;6.32;;;1.60;;
21999;SDS011;11164;48.818;2.322;2022-09-09T08:52:32;6.80;;;1.45;;
21999;SDS011;11164;48.818;2.322;2022-09-09T08:55:22;6.40;;;1.40;;
21999;SDS011;11164;48.818;2.322;2022-09-09T08:57:53;5.97;;;1.58;;
21999;SDS011;11164;48.818;2.322;2022-09-09T09:00:21;7.30;;;1.98;;
21999;SDS011;11164;48.818;2.322;2022-09-09T09:05:37;10.00;;;2.10;;
21999;SDS011;11164;48.818;2.322;2022-09-09T09:11:03;9.80;;;2.13;;
21999;SDS011;11164;48.818;2.322;2022-09-09T09:16:00;10.27;;;2.15;;
21999;SDS011;11164;48.818;2.322;2022-09-09T09:18:31;7.30;;;1.75;;
21999;SDS011;11164;48.818;2.322;2022-09-09T09:23:37;8.43;;;2.42;;
21999;SDS011;11164;48.818;2.322;2022-09-09T09:26:25;8.05;;;2.15;;
21999;SDS011;11164;48.818;2.322;2022-09-09T09:28:56;3.92;;;1.20;;
21999;SDS011;11164;48.818;2.322;2022-09-09T09:31:25;6.38;;;1.27;;
21999;SDS011;11164;48.818;2.322;2022-09-09T09:33:55;8.15;;;1.30;;
21999;SDS011;11164;48.818;2.322;2022-09-09T09:36:43;6.32;;;1.70;;
21999;SDS011;11164;48.818;2.322;2022-09-09T09:39:22;10.00;;;1.70;;
21999;SDS011;11164;48.818;2.322;2022-09-09T09:41:51;7.28;;;1.80;;
21999;SDS011;11164;48.818;2.322;2022-09-09T09:44:22;7.85;;;1.80;;
21999;SDS011;11164;48.818;2.322;2022-09-09T09:46:53;6.47;;;1.45;;
21999;SDS011;11164;48.818;2.322;2022-09-09T09:49:30;9.30;;;3.42;;
21999;SDS011;11164;48.818;2.322;2022-09-09T09:51:59;6.63;;;1.70;;
21999;SDS011;11164;48.818;2.322;2022-09-09T09:54:27;10.80;;;1.88;;
21999;SDS011;11164;48.818;2.322;2022-09-09T09:56:55;5.15;;;1.20;;
21999;SDS011;11164;48.818;2.322;2022-09-09T09:59:35;8.85;;;1.90;;
21999;SDS011;11164;48.818;2.322;2022-09-09T10:04:38;6.45;;;1.70;;
21999;SDS011;11164;48.818;2.322;2022-09-09T10:07:13;4.85;;;1.40;;
21999;SDS011;11164;48.818;2.322;2022-09-09T10:09:42;10.48;;;2.03;;
21999;SDS011;11164;48.818;2.322;2022-09-09T10:20:31;9.85;;;1.75;;
21999;SDS011;11164;48.818;2.322;2022-09-09T10:32:05;6.93;;;2.17;;
21999;SDS011;11164;48.818;2.322;2022-09-09T10:42:41;4.90;;;1.50;;
21999;SDS011;11164;48.818;2.322;2022-09-09T10:45:15;6.90;;;1.50;;
21999;SDS011;11164;48.818;2.322;2022-09-09T10:56:28;8.70;;;1.90;;
21999;SDS011;11164;48.818;2.322;2022-09-09T11:04:29;8.20;;;1.88;;
21999;SDS011;11164;48.818;2.322;2022-09-09T11:07:02;6.07;;;1.30;;
21999;SDS011;11164;48.818;2.322;2022-09-09T11:09:33;5.65;;;1.85;;
21999;SDS011;11164;48.818;2.322;2022-09-09T11:12:04;5.97;;;1.90;;
21999;SDS011;11164;48.818;2.322;2022-09-09T11:15:06;6.03;;;1.40;;
21999;SDS011;11164;48.818;2.322;2022-09-09T11:17:40;6.13;;;1.35;;
21999;SDS011;11164;48.818;2.322;2022-09-09T11:20:12;7.40;;;1.90;;
21999;SDS011;11164;48.818;2.322;2022-09-09T11:22:52;11.15;;;1.98;;
21999;SDS011;11164;48.818;2.322;2022-09-09T11:25:26;7.45;;;1.67;;
21999;SDS011;11164;48.818;2.322;2022-09-09T11:31:02;4.57;;;1.48;;
21999;SDS011;11164;48.818;2.322;2022-09-09T11:37:15;7.13;;;1.80;;
21999;SDS011;11164;48.818;2.322;2022-09-09T11:44:37;9.43;;;1.58;;
21999;SDS011;11164;48.818;2.322;2022-09-09T11:47:03;8.63;;;1.70;;
21999;SDS011;11164;48.818;2.322;2022-09-09T11:49:29;8.20;;;1.60;;
21999;SDS011;11164;48.818;2.322;2022-09-09T11:52:22;8.57;;;1.80;;
21999;SDS011;11164;48.818;2.322;2022-09-09T11:54:50;5.22;;;1.25;;
21999;SDS011;11164;48.818;2.322;2022-09-09T11:57:24;5.82;;;1.23;;
21999;SDS011;11164;48.818;2.322;2022-09-09T11:59:58;9.23;;;1.65;;
21999;SDS011;11164;48.818;2.322;2022-09-09T12:02:26;6.32;;;1.38;;
21999;SDS011;11164;48.818;2.322;2022-09-09T12:07:23;5.50;;;1.55;;
21999;SDS011;11164;48.818;2.322;2022-09-09T12:10:32;7.05;;;1.30;;
21999;SDS011;11164;48.818;2.322;2022-09-09T12:13:19;8.07;;;1.75;;
21999;SDS011;11164;48.818;2.322;2022-09-09T12:15:49;6.50;;;1.40;;
21999;SDS011;11164;48.818;2.322;2022-09-09T12:18:35;6.95;;;1.30;;
21999;SDS011;11164;48.818;2.322;2022-09-09T12:24:25;8.45;;;1.58;;
21999;SDS011;11164;48.818;2.322;2022-09-09T12:32:22;7.97;;;1.83;;
21999;SDS011;11164;48.818;2.322;2022-09-09T12:37:37;6.88;;;1.48;;
21999;SDS011;11164;48.818;2.322;2022-09-09T12:40:21;5.82;;;1.95;;
21999;SDS011;11164;48.818;2.322;2022-09-09T12:42:50;9.20;;;1.73;;
21999;SDS011;11164;48.818;2.322;2022-09-09T12:45:17;7.68;;;1.90;;
21999;SDS011;11164;48.818;2.322;2022-09-09T12:50:21;6.47;;;1.70;;
21999;SDS011;11164;48.818;2.322;2022-09-09T12:52:50;4.80;;;1.20;;
21999;SDS011;11164;48.818;2.322;2022-09-09T12:55:23;7.13;;;2.03;;
21999;SDS011;11164;48.818;2.322;2022-09-09T12:57:52;7.57;;;1.85;;
21999;SDS011;11164;48.818;2.322;2022-09-09T13:00:21;5.80;;;1.73;;
21999;SDS011;11164;48.818;2.322;2022-09-09T13:02:56;9.40;;;1.73;;
21999;SDS011;11164;48.818;2.322;2022-09-09T13:05:25;7.10;;;1.80;;
21999;SDS011;11164;48.818;2.322;2022-09-09T13:07:52;6.80;;;1.65;;
21999;SDS011;11164;48.818;2.322;2022-09-09T13:10:29;9.70;;;1.85;;
21999;SDS011;11164;48.818;2.322;2022-09-09T13:12:59;8.88;;;2.20;;
21999;SDS011;11164;48.818;2.322;2022-09-09T13:15:26;7.60;;;1.60;;
21999;SDS011;11164;48.818;2.322;2022-09-09T13:17:57;5.45;;;1.35;;
21999;SDS011;11164;48.818;2.322;2022-09-09T13:20:25;4.85;;;1.90;;
21999;SDS011;11164;48.818;2.322;2022-09-09T13:22:52;6.80;;;1.50;;
21999;SDS011;11164;48.818;2.322;2022-09-09T13:25:23;10.27;;;1.85;;
21999;SDS011;11164;48.818;2.322;2022-09-09T13:27:55;6.03;;;1.75;;
21999;SDS011;11164;48.818;2.322;2022-09-09T13:30:35;6.85;;;1.60;;
21999;SDS011;11164;48.818;2.322;2022-09-09T13:35:27;3.05;;;0.90;;
21999;SDS011;11164;48.818;2.322;2022-09-09T13:37:53;4.78;;;1.33;;
21999;SDS011;11164;48.818;2.322;2022-09-09T13:40:19;3.63;;;1.20;;
21999;SDS011;11164;48.818;2.322;2022-09-09T13:42:53;4.85;;;1.23;;
21999;SDS011;11164;48.818;2.322;2022-09-09T13:45:22;4.97;;;1.50;;
21999;SDS011;11164;48.818;2.322;2022-09-09T13:47:51;5.28;;;1.40;;
21999;SDS011;11164;48.818;2.322;2022-09-09T13:52:57;5.80;;;1.90;;
21999;SDS011;11164;48.818;2.322;2022-09-09T13:55:24;7.65;;;2.38;;
21999;SDS011;11164;48.818;2.322;2022-09-09T13:57:58;6.97;;;2.13;;
21999;SDS011;11164;48.818;2.322;2022-09-09T14:00:26;7.72;;;1.90;;
21999;SDS011;11164;48.818;2.322;2022-09-09T14:03:01;8.07;;;1.95;;
21999;SDS011;11164;48.818;2.322;2022-09-09T14:05:32;7.93;;;2.22;;
21999;SDS011;11164;48.818;2.322;2022-09-09T14:07:59;6.55;;;2.20;;
21999;SDS011;11164;48.818;2.322;2022-09-09T14:10:27;5.00;;;1.80;;
21999;SDS011;11164;48.818;2.322;2022-09-09T14:12:53;6.55;;;1.65;;
21999;SDS011;11164;48.818;2.322;2022-09-09T14:15:18;6.78;;;1.95;;
21999;SDS011;11164;48.818;2.322;2022-09-09T14:17:45;9.00;;;2.42;;
21999;SDS011;11164;48.818;2.322;2022-09-09T14:20:10;5.38;;;2.03;;
21999;SDS011;11164;48.818;2.322;2022-09-09T14:22:37;8.95;;;2.30;;
21999;SDS011;11164;48.818;2.322;2022-09-09T14:25:04;8.00;;;2.03;;
21999;SDS011;11164;48.818;2.322;2022-09-09T14:27:31;6.18;;;1.55;;
21999;SDS011;11164;48.818;2.322;2022-09-09T14:29:57;6.90;;;1.75;;
21999;SDS011;11164;48.818;2.322;2022-09-09T14:32:26;5.22;;;1.55;;
21999;SDS011;11164;48.818;2.322;2022-09-09T14:34:52;6.38;;;1.60;;
21999;SDS011;11164;48.818;2.322;2022-09-09T14:37:17;8.57;;;1.95;;
21999;SDS011;11164;48.818;2.322;2022-09-09T14:39:46;4.97;;;1.40;;
21999;SDS011;11164;48.818;2.322;2022-09-09T14:42:12;6.15;;;1.50;;
21999;SDS011;11164;48.818;2.322;2022-09-09T14:44:37;5.15;;;1.40;;
21999;SDS011;11164;48.818;2.322;2022-09-09T14:47:05;6.70;;;1.60;;
21999;SDS011;11164;48.818;2.322;2022-09-09T14:49:33;6.20;;;1.70;;
21999;SDS011;11164;48.818;2.322;2022-09-09T14:51:59;6.65;;;1.60;;
21999;SDS011;11164;48.818;2.322;2022-09-09T14:54:24;7.22;;;1.38;;
21999;SDS011;11164;48.818;2.322;2022-09-09T14:56:49;6.53;;;1.80;;
21999;SDS011;11164;48.818;2.322;2022-09-09T14:59:15;6.95;;;1.80;;
21999;SDS011;11164;48.818;2.322;2022-09-09T15:01:40;7.13;;;2.00;;
21999;SDS011;11164;48.818;2.322;2022-09-09T15:04:06;5.47;;;1.42;;
21999;SDS011;11164;48.818;2.322;2022-09-09T15:06:32;5.63;;;1.23;;
21999;SDS011;11164;48.818;2.322;2022-09-09T15:08:59;5.78;;;1.52;;
21999;SDS011;11164;48.818;2.322;2022-09-09T15:11:26;6.63;;;1.67;;
21999;SDS011;11164;48.818;2.322;2022-09-09T15:13:53;4.38;;;1.00;;
21999;SDS011;11164;48.818;2.322;2022-09-09T15:16:19;4.20;;;1.27;;
21999;SDS011;11164;48.818;2.322;2022-09-09T15:18:46;5.18;;;1.15;;
21999;SDS011;11164;48.818;2.322;2022-09-09T15:21:15;5.10;;;1.13;;
21999;SDS011;11164;48.818;2.322;2022-09-09T15:23:44;3.63;;;1.20;;
21999;SDS011;11164;48.818;2.322;2022-09-09T15:26:10;4.70;;;1.50;;
21999;SDS011;11164;48.818;2.322;2022-09-09T15:28:39;6.03;;;1.50;;
21999;SDS011;11164;48.818;2.322;2022-09-09T15:31:16;4.95;;;1.30;;
21999;SDS011;11164;48.818;2.322;2022-09-09T15:33:46;4.32;;;1.20;;
21999;SDS011;11164;48.818;2.322;2022-09-09T15:36:32;6.13;;;1.40;;
21999;SDS011;11164;48.818;2.322;2022-09-09T15:39:06;4.85;;;1.40;;
21999;SDS011;11164;48.818;2.322;2022-09-09T15:41:34;5.88;;;1.52;;
21999;SDS011;11164;48.818;2.322;2022-09-09T15:44:01;4.53;;;1.17;;
21999;SDS011;11164;48.818;2.322;2022-09-09T15:46:33;6.70;;;1.40;;
21999;SDS011;11164;48.818;2.322;2022-09-09T15:49:08;5.95;;;1.35;;
21999;SDS011;11164;48.818;2.322;2022-09-09T15:51:35;5.35;;;1.40;;
21999;SDS011;11164;48.818;2.322;2022-09-09T15:54:02;4.90;;;1.10;;
21999;SDS011;11164;48.818;2.322;2022-09-09T15:56:29;6.22;;;1.55;;
21999;SDS011;11164;48.818;2.322;2022-09-09T15:58:58;4.88;;;1.35;;
21999;SDS011;11164;48.818;2.322;2022-09-09T16:01:25;5.45;;;1.40;;
21999;SDS011;11164;48.818;2.322;2022-09-09T16:03:52;4.63;;;1.25;;
21999;SDS011;11164;48.818;2.322;2022-09-09T16:06:20;5.03;;;1.60;;
21999;SDS011;11164;48.818;2.322;2022-09-09T16:08:48;4.55;;;1.20;;
21999;SDS011;11164;48.818;2.322;2022-09-09T16:11:16;4.82;;;1.40;;
21999;SDS011;11164;48.818;2.322;2022-09-09T16:13:48;6.22;;;1.63;;
21999;SDS011;11164;48.818;2.322;2022-09-09T16:16:17;6.68;;;1.75;;
21999;SDS011;11164;48.818;2.322;2022-09-09T16:18:46;3.75;;;1.15;;
21999;SDS011;11164;48.818;2.322;2022-09-09T16:21:14;5.28;;;1.85;;
21999;SDS011;11164;48.818;2.322;2022-09-09T16:23:43;4.43;;;1.20;;
21999;SDS011;11164;48.818;2.322;2022-09-09T16:26:12;4.35;;;1.40;;
21999;SDS011;11164;48.818;2.322;2022-09-09T16:28:41;7.10;;;1.20;;
21999;SDS011;11164;48.818;2.322;2022-09-09T16:31:08;6.90;;;1.42;;
21999;SDS011;11164;48.818;2.322;2022-09-09T16:33:36;6.05;;;1.50;;
21999;SDS011;11164;48.818;2.322;2022-09-09T16:36:05;7.00;;;2.45;;
21999;SDS011;11164;48.818;2.322;2022-09-09T16:38:32;9.02;;;3.83;;
21999;SDS011;11164;48.818;2.322;2022-09-09T16:40:59;5.82;;;1.77;;
21999;SDS011;11164;48.818;2.322;2022-09-09T16:43:25;5.85;;;2.25;;
21999;SDS011;11164;48.818;2.322;2022-09-09T16:45:53;4.60;;;1.20;;
21999;SDS011;11164;48.818;2.322;2022-09-09T16:48:18;6.18;;;1.92;;
21999;SDS011;11164;48.818;2.322;2022-09-09T16:50:45;4.70;;;1.35;;
21999;SDS011;11164;48.818;2.322;2022-09-09T16:53:10;5.32;;;1.30;;
21999;SDS011;11164;48.818;2.322;2022-09-09T16:55:37;4.43;;;1.48;;
21999;SDS011;11164;48.818;2.322;2022-09-09T16:58:04;3.38;;;1.20;;
21999;SDS011;11164;48.818;2.322;2022-09-09T17:00:30;5.63;;;1.70;;
21999;SDS011;11164;48.818;2.322;2022-09-09T17:02:55;6.60;;;1.95;;
21999;SDS011;11164;48.818;2.322;2022-09-09T17:05:20;3.90;;;1.60;;
21999;SDS011;11164;48.818;2.322;2022-09-09T17:07:46;7.10;;;2.58;;
21999;SDS011;11164;48.818;2.322;2022-09-09T17:10:11;5.40;;;1.60;;
21999;SDS011;11164;48.818;2.322;2022-09-09T17:12:36;4.63;;;1.42;;
21999;SDS011;11164;48.818;2.322;2022-09-09T17:15:02;4.72;;;1.42;;
21999;SDS011;11164;48.818;2.322;2022-09-09T17:17:28;4.45;;;1.55;;